Keesler Air Force Base
KBIX : now visible

Airfield :











YOU CAN JOIN US ON...

 
LOGIN :

Register | Disclaimer

   EN    FR    IT 

 









Legend :    VFR   Marginal VFR   IFR   Intensive IFR   Very Intensive IFR
Visi :
Ceiling :
>= 8 km
>= 3000ft
5 to 8 km
1000 to 3000 ft
1500m to 5 km
500 to 1000 ft
800 to 1500m
200 to 500 ft
< 800m
< 200 ft
Symbols :   Thunderstorms  Fog  Heavy snow  Heavy precipitations  Wind > 20 kt






- Airport Elevation : 33 ft


KBIX - Keesler Air Force Base

CURRENT METAR :
  • 210056Z AUTO 10003KT 10SM CLR 14/10 A3016 RMK AO2 SLP216 T01420098

EXPIRED METARs :
  • 202356Z AUTO 11003KT 10SM CLR 15/09 A3016 RMK AO2 SLP216 T01500094 10207 20149 50003
  • 202256Z AUTO 12003KT 10SM CLR 17/09 A3016 RMK AO2 SLP216 T01660088
  • 202156Z AUTO 15005KT 10SM CLR 18/08 A3016 RMK AO2 SLP216 T01780081

TAF TAF KBIX
Valid from the 20 at 18:00 until the 22 at 00:00 UTC


201805Z 2018/2124 16009KT 9999 FEW240 QNH3011INS WND VRB06KT AFT 2022
BECMG 2112/2113 05006KT 9999 SCT200 QNH3018INS TX23/2020Z TN13/2113Z



MET'MAP, your aeronautical weather chart ! - Copyright ORBIFLY December 2007 - Disclaimer

ORBIFLY MET'MAP TEAM :

Programming & Development : Alexandra Zaïnal
Concept & Development : Baudouin d'Aumeries
Co-Development & Prog : Marc-Olivier Méhu
Technical & hardware support : Manuel Goepfert

Contact : metmap@orbifly.com




SOURCES & CREDITS :

   NOAA       Earth
Advisory